createdAt,value
2023-02-02T00:01:34.175Z,24.65
2023-02-02T00:04:02.462Z,23.05
2023-02-02T00:06:32.056Z,18.00
2023-02-02T00:09:02.811Z,17.05
2023-02-02T00:11:30.726Z,19.08
2023-02-02T00:13:58.574Z,18.40
2023-02-02T00:16:29.342Z,17.45
2023-02-02T00:18:59.615Z,19.40
2023-02-02T00:21:28.518Z,22.17
2023-02-02T00:23:56.657Z,28.48
2023-02-02T00:26:24.833Z,25.88
2023-02-02T00:28:52.956Z,25.98
2023-02-02T00:31:20.819Z,24.20
2023-02-02T00:33:50.144Z,23.30
2023-02-02T00:36:19.108Z,24.05
2023-02-02T00:38:48.454Z,24.63
2023-02-02T00:41:16.845Z,23.10
2023-02-02T00:43:45.026Z,23.25
2023-02-02T00:46:19.495Z,21.58
2023-02-02T00:48:47.286Z,19.83
2023-02-02T00:51:14.996Z,17.92
2023-02-02T00:53:42.872Z,18.30
2023-02-02T00:56:10.672Z,17.55
2023-02-02T00:58:38.444Z,17.70
2023-02-02T01:01:06.197Z,17.65
2023-02-02T01:03:34.786Z,16.52
2023-02-02T01:06:03.856Z,18.02
2023-02-02T01:08:31.805Z,17.60
2023-02-02T01:11:00.542Z,18.42
2023-02-02T01:13:28.313Z,19.40
2023-02-02T01:16:01.418Z,18.35
2023-02-02T01:18:30.125Z,17.02
2023-02-02T01:21:07.543Z,18.15
2023-02-02T01:23:37.700Z,17.55
2023-02-02T01:26:09.221Z,18.33
2023-02-02T01:28:37.785Z,18.92
2023-02-02T01:31:11.295Z,18.25
2023-02-02T01:33:39.728Z,18.50
2023-02-02T01:36:11.311Z,20.17
2023-02-02T01:38:39.248Z,19.70
2023-02-02T01:41:07.453Z,21.23
2023-02-02T01:43:44.487Z,20.30
2023-02-02T01:46:13.837Z,19.45
2023-02-02T01:48:46.424Z,19.00
2023-02-02T01:51:18.107Z,19.35
2023-02-02T01:53:48.281Z,20.15
2023-02-02T01:56:24.837Z,19.60
2023-02-02T01:58:53.262Z,18.73
2023-02-02T02:01:21.249Z,18.45
2023-02-02T02:03:49.072Z,16.50
2023-02-02T02:06:19.276Z,11.88
2023-02-02T02:08:55.921Z,11.68
2023-02-02T02:11:24.948Z,10.13
2023-02-02T02:14:14.540Z,10.60
2023-02-02T02:17:21.186Z,10.35
2023-02-02T02:20:16.433Z,10.55
2023-02-02T02:23:31.749Z,9.88
2023-02-02T02:26:35.884Z,9.45
2023-02-02T02:29:44.635Z,9.63
2023-02-02T02:32:52.877Z,10.35
2023-02-02T02:35:37.030Z,11.75
2023-02-02T02:38:05.390Z,12.00
2023-02-02T02:40:40.503Z,11.80
2023-02-02T02:43:16.637Z,10.45
2023-02-02T02:45:44.967Z,8.45
2023-02-02T02:48:14.644Z,7.78
2023-02-02T02:50:42.600Z,7.40
2023-02-02T02:53:23.984Z,8.27
2023-02-02T02:56:01.988Z,10.40
2023-02-02T02:58:45.860Z,11.38
2023-02-02T03:01:34.447Z,9.90
2023-02-02T03:04:13.450Z,9.55
2023-02-02T03:07:03.446Z,8.88
2023-02-02T03:09:36.492Z,8.85
2023-02-02T03:12:04.451Z,9.13
2023-02-02T03:14:36.517Z,9.80
2023-02-02T03:17:04.533Z,28.15
2023-02-02T03:19:32.999Z,24.42
2023-02-02T03:22:00.914Z,17.95
2023-02-02T03:24:28.646Z,9.40
2023-02-02T03:26:56.361Z,7.88
2023-02-02T03:29:24.201Z,7.65
2023-02-02T03:31:52.010Z,8.13
2023-02-02T03:34:19.821Z,8.57
2023-02-02T03:36:47.569Z,8.93
2023-02-02T03:39:15.301Z,9.73
2023-02-02T03:41:43.035Z,9.40
2023-02-02T03:44:10.844Z,9.23
2023-02-02T03:46:38.706Z,10.40
2023-02-02T03:49:06.744Z,10.05
2023-02-02T03:51:34.599Z,10.00
2023-02-02T03:54:02.457Z,9.55
2023-02-02T03:56:30.465Z,10.95
2023-02-02T03:58:58.216Z,12.38
2023-02-02T04:01:29.204Z,11.52
2023-02-02T04:03:58.125Z,12.85
2023-02-02T04:06:27.471Z,11.55
2023-02-02T04:08:55.270Z,11.98
2023-02-02T04:11:23.093Z,10.73
2023-02-02T04:13:50.894Z,10.70
2023-02-02T04:16:18.747Z,11.05
2023-02-02T04:18:46.627Z,11.70
2023-02-02T04:21:14.436Z,13.68
2023-02-02T04:23:42.198Z,13.15
2023-02-02T04:26:10.047Z,16.25
2023-02-02T04:28:37.811Z,21.50
2023-02-02T04:31:05.670Z,24.92
2023-02-02T04:33:34.809Z,24.48
2023-02-02T04:36:02.890Z,22.35
2023-02-02T04:38:30.624Z,21.10
2023-02-02T04:40:58.564Z,18.10
2023-02-02T04:43:26.298Z,14.13
2023-02-02T04:45:57.743Z,13.52
2023-02-02T04:48:25.524Z,12.80
2023-02-02T04:51:02.023Z,12.52
2023-02-02T04:53:30.610Z,11.05
2023-02-02T04:56:04.913Z,11.95
2023-02-02T04:58:33.218Z,10.25
2023-02-02T05:01:01.287Z,11.43
2023-02-02T05:03:29.090Z,11.77
2023-02-02T05:06:03.973Z,18.45
2023-02-02T05:08:32.387Z,18.05
2023-02-02T05:11:00.358Z,16.92
2023-02-02T05:13:28.243Z,17.02
2023-02-02T05:15:56.046Z,16.02
2023-02-02T05:18:25.735Z,17.33
2023-02-02T05:20:55.206Z,17.63
2023-02-02T05:23:22.991Z,18.08
2023-02-02T05:25:54.840Z,18.27
2023-02-02T05:28:23.501Z,16.60
2023-02-02T05:30:52.046Z,15.30
2023-02-02T05:33:20.206Z,15.50
2023-02-02T05:35:51.961Z,16.13
2023-02-02T05:38:19.811Z,17.05
2023-02-02T05:40:49.589Z,13.50
2023-02-02T05:43:17.517Z,12.45
2023-02-02T05:45:45.388Z,10.05
2023-02-02T05:48:14.800Z,6.35
2023-02-02T05:50:50.391Z,5.32
2023-02-02T05:53:18.237Z,4.97
2023-02-02T05:55:46.379Z,6.40
2023-02-02T05:58:14.403Z,7.93
2023-02-02T06:00:42.209Z,10.15
2023-02-02T06:03:10.197Z,13.25
2023-02-02T06:05:38.219Z,16.00
2023-02-02T06:08:06.333Z,24.25
2023-02-02T06:10:34.219Z,20.30
2023-02-02T06:13:02.264Z,20.33
2023-02-02T06:15:30.304Z,25.80
2023-02-02T06:17:59.071Z,25.02
2023-02-02T06:20:27.652Z,24.13
2023-02-02T06:22:55.701Z,23.60
2023-02-02T06:25:24.174Z,21.83
2023-02-02T06:27:56.564Z,19.70
2023-02-02T06:30:24.525Z,19.80
2023-02-02T06:32:52.513Z,20.55
2023-02-02T06:35:20.678Z,21.50
2023-02-02T06:37:49.371Z,21.48
2023-02-02T06:40:17.581Z,22.08
2023-02-02T06:42:45.432Z,26.05
2023-02-02T06:45:13.432Z,27.17
2023-02-02T06:47:41.407Z,27.55
2023-02-02T06:50:10.113Z,25.08
2023-02-02T06:52:38.052Z,24.48
2023-02-02T06:55:06.150Z,16.83
2023-02-02T06:57:39.395Z,20.27
2023-02-02T07:00:09.242Z,16.67
2023-02-02T07:02:39.677Z,16.88
2023-02-02T07:05:22.443Z,15.82
2023-02-02T07:08:20.419Z,13.52
2023-02-02T07:11:12.847Z,12.40
2023-02-02T07:14:13.213Z,11.40
2023-02-02T07:16:57.990Z,9.70
2023-02-02T07:19:52.687Z,7.28
2023-02-02T07:22:31.507Z,8.30
2023-02-02T07:25:00.111Z,7.47
2023-02-02T07:27:27.965Z,7.50
2023-02-02T07:29:56.052Z,7.78
2023-02-02T07:32:23.925Z,7.28
2023-02-02T07:34:51.838Z,8.88
2023-02-02T07:37:19.876Z,8.07
2023-02-02T07:39:47.765Z,7.57
2023-02-02T07:42:15.602Z,7.25
2023-02-02T07:44:43.616Z,5.05
2023-02-02T07:47:11.486Z,4.47
2023-02-02T07:49:39.533Z,4.18
2023-02-02T07:52:12.601Z,4.63
2023-02-02T07:54:40.488Z,5.00
2023-02-02T07:57:08.391Z,5.03
2023-02-02T07:59:36.288Z,5.20
2023-02-02T08:02:04.376Z,5.68
2023-02-02T08:04:34.503Z,5.47
2023-02-02T08:07:02.376Z,5.15
2023-02-02T08:09:30.264Z,5.13
2023-02-02T08:12:02.256Z,4.70
2023-02-02T08:14:30.246Z,5.35
2023-02-02T08:16:58.152Z,4.70
2023-02-02T08:19:26.183Z,5.43
2023-02-02T08:22:00.807Z,5.07
2023-02-02T08:24:28.989Z,4.90
2023-02-02T08:26:57.075Z,4.68
2023-02-02T08:29:32.033Z,5.80
2023-02-02T08:32:00.619Z,6.00
2023-02-02T08:34:37.201Z,4.43
2023-02-02T08:37:05.125Z,4.93
2023-02-02T08:39:33.183Z,4.75
2023-02-02T08:42:00.985Z,4.60
2023-02-02T08:45:57.906Z,5.15
2023-02-02T08:47:23.564Z,4.30
2023-02-02T08:49:51.682Z,5.10
2023-02-02T08:52:19.563Z,5.20
2023-02-02T08:54:47.559Z,5.05
2023-02-02T08:57:15.839Z,4.90
2023-02-02T08:59:43.630Z,5.70
2023-02-02T09:02:15.086Z,5.35
2023-02-02T09:04:45.630Z,5.63
2023-02-02T09:07:13.583Z,7.90
2023-02-02T09:09:42.095Z,6.85
2023-02-02T09:12:09.950Z,6.82
2023-02-02T09:14:37.764Z,6.70
2023-02-02T09:17:05.651Z,8.95
2023-02-02T09:19:33.479Z,7.75
2023-02-02T09:22:01.333Z,10.57
2023-02-02T09:24:29.370Z,4.75
2023-02-02T09:26:57.328Z,5.07
2023-02-02T09:29:25.328Z,4.38
2023-02-02T09:31:53.276Z,4.72
2023-02-02T09:34:21.167Z,4.03
2023-02-02T09:36:49.165Z,3.70
2023-02-02T09:39:18.667Z,2.60
2023-02-02T09:42:04.924Z,3.50
2023-02-02T09:44:41.258Z,2.30
2023-02-02T09:47:36.634Z,2.67
2023-02-02T09:50:31.783Z,2.65
2023-02-02T09:53:08.916Z,2.83
2023-02-02T09:55:49.764Z,3.75
2023-02-02T09:58:23.147Z,3.70
2023-02-02T10:01:26.056Z,2.75
2023-02-02T10:04:24.117Z,4.47
2023-02-02T10:07:06.279Z,3.45
2023-02-02T10:09:43.896Z,3.75
2023-02-02T10:12:29.693Z,4.43
2023-02-02T10:15:32.851Z,3.95
2023-02-02T10:18:19.925Z,3.38
2023-02-02T10:20:59.906Z,2.25
2023-02-02T10:23:40.374Z,2.25
2023-02-02T10:26:25.740Z,1.30
2023-02-02T10:29:12.157Z,2.10
2023-02-02T10:32:03.559Z,2.10
2023-02-02T10:34:40.290Z,1.80
2023-02-02T10:37:26.262Z,2.78
2023-02-02T10:40:04.212Z,3.30
2023-02-02T10:43:27.800Z,2.92
2023-02-02T10:45:57.099Z,3.17
2023-02-02T10:48:32.857Z,2.58
2023-02-02T10:51:05.048Z,5.15
2023-02-02T10:53:34.070Z,6.68
2023-02-02T10:56:12.359Z,5.30
2023-02-02T10:58:58.978Z,5.97
2023-02-02T11:01:27.006Z,5.40
2023-02-02T11:04:14.804Z,5.20
2023-02-02T11:06:52.227Z,5.78
2023-02-02T11:12:28.194Z,5.80
2023-02-02T11:15:02.159Z,6.00
2023-02-02T11:17:33.512Z,5.85
2023-02-02T11:20:02.132Z,5.00
2023-02-02T11:22:35.426Z,4.57
2023-02-02T11:25:07.154Z,4.07
2023-02-02T11:27:43.643Z,4.55
2023-02-02T11:30:34.942Z,4.33
2023-02-02T11:33:20.844Z,2.70
2023-02-02T11:36:01.896Z,3.22
2023-02-02T11:38:30.386Z,2.80
2023-02-02T11:41:11.629Z,4.00
2023-02-02T11:43:51.979Z,3.15
2023-02-02T11:46:19.969Z,3.00
2023-02-02T11:48:59.721Z,3.50
2023-02-02T11:51:29.366Z,3.50
2023-02-02T11:54:06.861Z,2.60
2023-02-02T11:59:06.483Z,2.05
2023-02-02T12:01:36.022Z,2.50
2023-02-02T12:04:13.836Z,3.10
2023-02-02T12:06:41.855Z,2.92
2023-02-02T12:09:22.559Z,3.05
2023-02-02T12:12:15.918Z,3.10
2023-02-02T12:14:57.872Z,3.33
2023-02-02T12:17:45.563Z,2.92
2023-02-02T12:20:32.365Z,2.10
2023-02-02T12:23:24.818Z,2.20
2023-02-02T12:26:03.333Z,2.28
2023-02-02T12:28:54.851Z,2.03
2023-02-02T12:31:44.068Z,1.92
2023-02-02T12:34:56.956Z,2.80
2023-02-02T12:37:34.375Z,3.42
2023-02-02T12:40:20.257Z,4.60
2023-02-02T12:42:56.240Z,3.88
2023-02-02T12:45:24.451Z,3.40
2023-02-02T12:48:19.955Z,4.00
2023-02-02T12:51:04.220Z,3.10
2023-02-02T12:54:34.348Z,3.00
2023-02-02T12:56:58.913Z,3.20
2023-02-02T12:59:51.400Z,3.15
2023-02-02T13:02:57.411Z,3.05
2023-02-02T13:05:43.486Z,3.45
2023-02-02T13:08:17.896Z,4.10
2023-02-02T13:10:53.789Z,4.43
2023-02-02T13:13:33.781Z,5.32
2023-02-02T13:16:09.395Z,7.25
2023-02-02T13:18:48.723Z,6.68
2023-02-02T13:21:21.478Z,6.03
2023-02-02T13:23:58.239Z,5.82
2023-02-02T13:26:39.115Z,6.53
2023-02-02T13:29:29.171Z,5.28
2023-02-02T13:32:06.805Z,5.88
2023-02-02T13:34:56.548Z,7.55
2023-02-02T13:37:41.454Z,6.95
2023-02-02T13:40:32.262Z,5.50
2023-02-02T13:43:35.649Z,5.35
2023-02-02T13:46:26.267Z,3.95
2023-02-02T13:49:02.516Z,4.00
2023-02-02T13:52:07.858Z,4.25
2023-02-02T13:54:49.533Z,4.40
2023-02-02T13:57:57.288Z,6.00
2023-02-02T14:00:36.996Z,4.80
2023-02-02T14:03:19.283Z,4.88
2023-02-02T14:06:14.453Z,4.55
2023-02-02T14:08:52.219Z,5.03
2023-02-02T14:11:37.973Z,5.25
2023-02-02T14:14:35.879Z,4.90
2023-02-02T14:17:23.886Z,4.80
2023-02-02T14:20:09.098Z,4.28
2023-02-02T14:22:57.204Z,4.63
2023-02-02T14:25:33.944Z,4.93
2023-02-02T14:28:04.980Z,5.30
2023-02-02T14:30:35.542Z,3.70
2023-02-02T14:33:27.763Z,1.30
2023-02-02T14:36:01.462Z,1.60
2023-02-02T14:38:56.154Z,2.20
2023-02-02T14:42:36.398Z,2.10
2023-02-02T14:45:12.917Z,2.33
2023-02-02T14:47:55.061Z,2.70
2023-02-02T14:50:45.176Z,2.55
2023-02-02T14:53:13.454Z,3.00
2023-02-02T14:55:55.544Z,2.30
2023-02-02T14:58:28.120Z,3.63
2023-02-02T15:01:01.629Z,3.90
2023-02-02T15:03:51.083Z,13.95
2023-02-02T15:06:35.783Z,11.73
2023-02-02T15:09:26.842Z,12.57
2023-02-02T15:12:03.476Z,6.80
2023-02-02T15:15:08.443Z,7.07
2023-02-02T15:17:38.815Z,4.30
2023-02-02T15:20:12.502Z,7.32
2023-02-02T15:23:04.591Z,8.68
2023-02-02T15:25:37.794Z,9.98
2023-02-02T15:28:28.990Z,5.25
2023-02-02T15:31:26.108Z,7.88
2023-02-02T15:34:21.070Z,14.23
2023-02-02T15:36:52.216Z,11.77
2023-02-02T15:39:27.325Z,11.18
2023-02-02T15:42:17.153Z,10.95
2023-02-02T15:44:45.960Z,9.48
2023-02-02T15:47:17.440Z,9.88
2023-02-02T15:49:46.404Z,8.48
2023-02-02T15:52:25.625Z,8.10
2023-02-02T15:55:00.445Z,11.85
2023-02-02T15:57:28.694Z,10.25
2023-02-02T15:59:57.336Z,13.38
2023-02-02T16:02:28.168Z,13.93
2023-02-02T16:04:56.045Z,12.75
2023-02-02T16:07:29.203Z,12.00
2023-02-02T16:10:02.493Z,11.77
2023-02-02T16:12:31.107Z,11.27
2023-02-02T16:14:59.397Z,11.90
2023-02-02T16:17:32.961Z,15.98
2023-02-02T16:20:09.050Z,12.90
2023-02-02T16:22:38.930Z,13.70
2023-02-02T16:25:15.769Z,34.85
2023-02-02T16:27:48.147Z,26.52
2023-02-02T16:30:39.639Z,43.08
2023-02-02T16:33:27.289Z,50.05
2023-02-02T16:35:58.467Z,46.97
2023-02-02T16:38:37.745Z,31.80
2023-02-02T16:41:29.758Z,23.58
2023-02-02T16:44:31.535Z,13.80
2023-02-02T16:47:00.518Z,11.68
2023-02-02T16:49:30.488Z,10.90
2023-02-02T16:52:16.626Z,8.45
2023-02-02T16:54:54.159Z,9.02
2023-02-02T16:57:31.502Z,9.35
2023-02-02T17:00:06.378Z,8.13
2023-02-02T17:02:39.020Z,8.30
2023-02-02T17:05:17.336Z,11.10
2023-02-02T17:08:11.722Z,36.88
2023-02-02T17:10:42.531Z,39.92
2023-02-02T17:13:32.690Z,44.03
2023-02-02T17:16:01.803Z,53.97
2023-02-02T17:18:33.038Z,53.85
2023-02-02T17:21:07.866Z,59.40
2023-02-02T17:23:37.182Z,55.22
2023-02-02T17:26:11.777Z,47.50
2023-02-02T17:28:41.361Z,38.10
2023-02-02T17:31:13.897Z,36.75
2023-02-02T17:33:46.082Z,35.03
2023-02-02T17:36:14.386Z,30.95
2023-02-02T17:38:42.632Z,25.50
2023-02-02T17:41:13.082Z,19.10
2023-02-02T17:43:45.796Z,31.75
2023-02-02T17:46:13.898Z,23.33
2023-02-02T17:48:44.639Z,21.83
2023-02-02T17:51:18.824Z,21.35
2023-02-02T17:53:46.845Z,22.73
2023-02-02T17:56:15.039Z,20.45
2023-02-02T17:58:43.023Z,31.48
2023-02-02T18:01:12.562Z,48.28
2023-02-02T18:03:43.717Z,42.90
2023-02-02T18:06:14.694Z,42.13
2023-02-02T18:08:42.770Z,45.42
2023-02-02T18:11:13.216Z,45.17
2023-02-02T18:13:45.315Z,45.63
2023-02-02T18:16:14.381Z,43.92
2023-02-02T18:18:42.496Z,47.17
2023-02-02T18:21:14.740Z,49.35
2023-02-02T18:23:42.678Z,45.55
2023-02-02T18:26:24.741Z,31.02
2023-02-02T18:28:55.973Z,26.65
2023-02-02T18:31:24.354Z,27.80
2023-02-02T18:33:52.692Z,25.05
2023-02-02T18:36:25.551Z,21.23
2023-02-02T18:39:11.240Z,21.70
2023-02-02T18:41:39.698Z,17.75
2023-02-02T18:44:16.926Z,18.42
2023-02-02T18:46:45.251Z,21.08
2023-02-02T18:49:17.042Z,25.23
2023-02-02T18:51:44.991Z,26.73
2023-02-02T18:54:13.159Z,27.08
2023-02-02T18:56:41.257Z,28.63
2023-02-02T18:59:09.478Z,31.58
2023-02-02T19:01:37.571Z,33.63
2023-02-02T19:04:05.577Z,41.38
2023-02-02T19:06:55.223Z,45.65
2023-02-02T19:09:23.327Z,46.53
2023-02-02T19:11:55.137Z,44.53
2023-02-02T19:14:27.710Z,38.80
2023-02-02T19:17:00.091Z,36.28
2023-02-02T19:19:33.648Z,38.17
2023-02-02T19:22:21.319Z,47.35
2023-02-02T19:24:49.954Z,42.20
2023-02-02T19:27:29.490Z,41.97
2023-02-02T19:30:03.948Z,39.35
2023-02-02T19:32:35.178Z,38.25
2023-02-02T19:35:03.648Z,39.95
2023-02-02T19:37:33.419Z,39.30
2023-02-02T19:40:10.168Z,37.75
2023-02-02T19:42:43.729Z,34.22
2023-02-02T19:45:35.869Z,31.48
2023-02-02T19:48:15.370Z,31.63
2023-02-02T19:50:54.944Z,36.40
2023-02-02T19:53:35.777Z,44.72
2023-02-02T19:56:25.195Z,46.17
2023-02-02T19:58:54.919Z,46.38
2023-02-02T20:01:28.352Z,43.90
2023-02-02T20:03:58.862Z,38.80
2023-02-02T20:06:30.822Z,31.52
2023-02-02T20:09:01.657Z,26.17
2023-02-02T20:11:39.270Z,25.35
2023-02-02T20:14:19.480Z,29.40
2023-02-02T20:16:51.702Z,29.08
2023-02-02T20:19:30.044Z,32.03
2023-02-02T20:22:04.100Z,30.70
2023-02-02T20:24:37.329Z,30.08
2023-02-02T20:27:26.202Z,28.98
2023-02-02T20:29:58.085Z,33.70
2023-02-02T20:32:30.539Z,34.28
2023-02-02T20:34:59.301Z,36.13
2023-02-02T20:37:30.474Z,35.70
2023-02-02T20:40:01.674Z,35.85
2023-02-02T20:42:32.213Z,39.58
2023-02-02T20:45:00.304Z,30.55
2023-02-02T20:47:29.108Z,25.23
2023-02-02T20:50:01.308Z,27.30
2023-02-02T20:52:32.079Z,27.42
2023-02-02T20:55:21.152Z,26.55
2023-02-02T20:57:50.089Z,27.80
2023-02-02T21:00:27.755Z,26.33
2023-02-02T21:02:56.966Z,24.75
2023-02-02T21:05:44.815Z,23.67
2023-02-02T21:08:33.240Z,24.50
2023-02-02T21:11:02.290Z,24.80
2023-02-02T21:13:37.597Z,25.17
2023-02-02T21:16:05.925Z,29.40
2023-02-02T21:18:33.752Z,28.67
2023-02-02T21:21:01.666Z,31.50
2023-02-02T21:23:29.664Z,31.77
2023-02-02T21:25:57.627Z,31.23
2023-02-02T21:28:25.572Z,31.63
2023-02-02T21:30:53.453Z,30.95
2023-02-02T21:33:21.270Z,31.42
2023-02-02T21:35:49.037Z,30.38
2023-02-02T21:38:16.814Z,30.50
2023-02-02T21:40:44.939Z,28.08
2023-02-02T21:43:18.207Z,26.25
2023-02-02T21:45:50.763Z,23.65
2023-02-02T21:48:37.562Z,24.67
2023-02-02T21:51:26.157Z,24.60
2023-02-02T21:53:53.975Z,27.45
2023-02-02T21:56:28.094Z,23.05
2023-02-02T21:59:00.730Z,21.13
2023-02-02T22:01:38.364Z,19.65
2023-02-02T22:04:21.677Z,19.33
2023-02-02T22:07:01.504Z,21.65
2023-02-02T22:09:39.123Z,23.88
2023-02-02T22:12:28.753Z,25.70
2023-02-02T22:15:01.566Z,22.50
2023-02-02T22:17:41.480Z,32.70
2023-02-02T22:20:15.510Z,35.15
2023-02-02T22:22:49.155Z,27.83
2023-02-02T22:25:16.926Z,25.60
2023-02-02T22:27:52.066Z,24.67
2023-02-02T22:30:33.361Z,29.00
2023-02-02T22:33:01.598Z,26.33
2023-02-02T22:35:29.478Z,27.55
2023-02-02T22:37:57.723Z,27.38
2023-02-02T22:40:26.395Z,26.67
2023-02-02T22:42:57.650Z,30.77
2023-02-02T22:45:26.187Z,27.17
2023-02-02T22:47:54.496Z,27.65
2023-02-02T22:50:25.273Z,28.38
2023-02-02T22:52:53.471Z,26.63
2023-02-02T22:55:21.590Z,25.38
2023-02-02T22:57:50.159Z,25.77
2023-02-02T23:00:26.868Z,24.77
2023-02-02T23:02:55.792Z,24.58
2023-02-02T23:05:25.633Z,24.05
2023-02-02T23:07:54.423Z,23.92
2023-02-02T23:10:25.777Z,21.60
2023-02-02T23:12:55.558Z,20.88
2023-02-02T23:15:23.527Z,20.80
2023-02-02T23:17:51.420Z,21.33
2023-02-02T23:20:19.721Z,20.25
2023-02-02T23:22:47.557Z,21.20
2023-02-02T23:25:16.718Z,20.27
2023-02-02T23:27:44.808Z,22.33
2023-02-02T23:30:14.031Z,21.60
2023-02-02T23:32:42.258Z,20.00
2023-02-02T23:35:11.064Z,20.48
2023-02-02T23:37:39.185Z,20.75
2023-02-02T23:40:07.570Z,19.63
2023-02-02T23:42:35.585Z,16.45
2023-02-02T23:45:04.433Z,17.42
2023-02-02T23:47:34.241Z,16.77
2023-02-02T23:50:07.856Z,17.83
2023-02-02T23:52:36.591Z,16.00
2023-02-02T23:55:05.765Z,13.98
2023-02-02T23:57:34.065Z,12.35
